sensor_id;sensor_type;location;lat;lon;timestamp;pressure;altitude;pressure_sealevel;temperature;humidity
54146;BME280;65909;49.422;7.738;2023-02-28T00:00:15;78428.72;;;-145.25;62.58
54146;BME280;65909;49.422;7.738;2023-02-28T00:02:41;78442.78;;;-145.25;63.01
54146;BME280;65909;49.422;7.738;2023-02-28T00:05:09;78446.78;;;-145.25;62.76
54146;BME280;65909;49.422;7.738;2023-02-28T00:07:34;78450.81;;;-145.25;62.79
54146;BME280;65909;49.422;7.738;2023-02-28T00:10:00;78442.78;;;-145.25;63.05
54146;BME280;65909;49.422;7.738;2023-02-28T00:12:25;78448.78;;;-145.25;63.08
54146;BME280;65909;49.422;7.738;2023-02-28T00:14:51;78438.75;;;-145.25;63.06
54146;BME280;65909;49.422;7.738;2023-02-28T00:17:16;78448.78;;;-145.25;63.43
54146;BME280;65909;49.422;7.738;2023-02-28T00:19:49;78444.78;;;-145.25;63.45
54146;BME280;65909;49.422;7.738;2023-02-28T00:22:20;78448.78;;;-145.25;63.62
54146;BME280;65909;49.422;7.738;2023-02-28T00:24:46;78450.81;;;-145.25;63.85
54146;BME280;65909;49.422;7.738;2023-02-28T00:27:12;78464.84;;;-145.25;64.39
54146;BME280;65909;49.422;7.738;2023-02-28T00:29:37;78466.84;;;-145.25;64.56
54146;BME280;65909;49.422;7.738;2023-02-28T00:32:04;78466.84;;;-145.25;64.64
54146;BME280;65909;49.422;7.738;2023-02-28T00:34:29;78486.91;;;-145.25;65.86
54146;BME280;65909;49.422;7.738;2023-02-28T00:36:55;78502.94;;;-145.25;66.57
54146;BME280;65909;49.422;7.738;2023-02-28T00:39:20;78496.94;;;-145.25;67.00
54146;BME280;65909;49.422;7.738;2023-02-28T00:41:46;78498.94;;;-145.25;66.66
54146;BME280;65909;49.422;7.738;2023-02-28T00:44:11;78498.94;;;-145.25;67.08
54146;BME280;65909;49.422;7.738;2023-02-28T00:46:37;78494.94;;;-145.25;67.32
54146;BME280;65909;49.422;7.738;2023-02-28T00:49:02;78500.94;;;-145.25;67.55
54146;BME280;65909;49.422;7.738;2023-02-28T00:51:27;78504.97;;;-145.25;67.81
54146;BME280;65909;49.422;7.738;2023-02-28T00:53:53;78515.00;;;-145.25;68.04
54146;BME280;65909;49.422;7.738;2023-02-28T00:56:20;78500.94;;;-145.25;68.32
54146;BME280;65909;49.422;7.738;2023-02-28T00:58:45;78506.97;;;-145.25;68.12
54146;BME280;65909;49.422;7.738;2023-02-28T01:01:11;78508.97;;;-145.25;68.07
54146;BME280;65909;49.422;7.738;2023-02-28T01:03:36;78515.00;;;-145.25;68.23
54146;BME280;65909;49.422;7.738;2023-02-28T01:06:02;78510.97;;;-145.25;68.03
54146;BME280;65909;49.422;7.738;2023-02-28T01:08:27;78508.97;;;-145.25;68.38
54146;BME280;65909;49.422;7.738;2023-02-28T01:10:53;78510.97;;;-145.25;68.56
54146;BME280;65909;49.422;7.738;2023-02-28T01:13:19;78527.03;;;-145.25;69.16
54146;BME280;65909;49.422;7.738;2023-02-28T01:15:51;78517.00;;;-145.25;68.61
54146;BME280;65909;49.422;7.738;2023-02-28T01:18:17;78531.03;;;-145.25;68.64
54146;BME280;65909;49.422;7.738;2023-02-28T01:20:42;78519.00;;;-145.25;68.51
54146;BME280;65909;49.422;7.738;2023-02-28T01:23:08;78521.00;;;-145.25;68.60
54146;BME280;65909;49.422;7.738;2023-02-28T01:25:36;78537.06;;;-145.25;69.00
54146;BME280;65909;49.422;7.738;2023-02-28T01:28:02;78565.13;;;-145.25;70.17
54146;BME280;65909;49.422;7.738;2023-02-28T01:30:30;78559.13;;;-145.25;70.07
54146;BME280;65909;49.422;7.738;2023-02-28T01:32:55;78575.16;;;-145.25;70.62
54146;BME280;65909;49.422;7.738;2023-02-28T01:35:21;78573.16;;;-145.25;70.88
54146;BME280;65909;49.422;7.738;2023-02-28T01:37:46;78597.22;;;-145.25;71.60
54146;BME280;65909;49.422;7.738;2023-02-28T01:40:12;78617.28;;;-145.25;71.99
54146;BME280;65909;49.422;7.738;2023-02-28T01:42:38;78597.22;;;-145.25;71.70
54146;BME280;65909;49.422;7.738;2023-02-28T01:45:06;78613.28;;;-145.25;71.90
54146;BME280;65909;49.422;7.738;2023-02-28T01:47:42;78631.34;;;-145.25;72.64
54146;BME280;65909;49.422;7.738;2023-02-28T01:50:13;78633.34;;;-145.25;73.62
54146;BME280;65909;49.422;7.738;2023-02-28T01:52:40;78631.34;;;-145.25;73.71
54146;BME280;65909;49.422;7.738;2023-02-28T01:55:06;78651.38;;;-145.25;74.40
54146;BME280;65909;49.422;7.738;2023-02-28T01:57:37;78625.31;;;-145.25;73.81
54146;BME280;65909;49.422;7.738;2023-02-28T02:00:23;78641.34;;;-145.25;74.85
54146;BME280;65909;49.422;7.738;2023-02-28T02:02:52;78643.38;;;-145.25;74.69
54146;BME280;65909;49.422;7.738;2023-02-28T02:05:24;78633.34;;;-145.25;73.87
54146;BME280;65909;49.422;7.738;2023-02-28T02:07:54;78639.34;;;-145.25;74.93
54146;BME280;65909;49.422;7.738;2023-02-28T02:10:48;78643.38;;;-145.25;74.23
54146;BME280;65909;49.422;7.738;2023-02-28T02:16:58;78651.38;;;-145.25;74.17
54146;BME280;65909;49.422;7.738;2023-02-28T02:19:52;78645.38;;;-145.25;73.82
54146;BME280;65909;49.422;7.738;2023-02-28T02:23:01;78633.34;;;-145.25;73.35
54146;BME280;65909;49.422;7.738;2023-02-28T02:31:22;78637.34;;;-145.25;73.10
54146;BME280;65909;49.422;7.738;2023-02-28T02:34:26;78677.47;;;-145.25;73.23
54146;BME280;65909;49.422;7.738;2023-02-28T02:37:29;78673.47;;;-145.25;73.70
54146;BME280;65909;49.422;7.738;2023-02-28T02:42:54;78709.56;;;-145.25;74.35
54146;BME280;65909;49.422;7.738;2023-02-28T02:45:34;78695.53;;;-145.25;74.22
54146;BME280;65909;49.422;7.738;2023-02-28T02:48:03;78693.50;;;-145.25;73.99
54146;BME280;65909;49.422;7.738;2023-02-28T02:50:34;78689.50;;;-145.25;73.49
54146;BME280;65909;49.422;7.738;2023-02-28T02:53:03;78719.59;;;-145.25;74.36
54146;BME280;65909;49.422;7.738;2023-02-28T02:55:33;78695.53;;;-145.25;73.51
54146;BME280;65909;49.422;7.738;2023-02-28T02:58:02;78707.56;;;-145.25;74.03
54146;BME280;65909;49.422;7.738;2023-02-28T03:00:34;78717.59;;;-145.25;73.23
54146;BME280;65909;49.422;7.738;2023-02-28T03:03:02;78709.56;;;-145.25;73.96
54146;BME280;65909;49.422;7.738;2023-02-28T03:05:42;78699.53;;;-145.25;72.91
54146;BME280;65909;49.422;7.738;2023-02-28T03:08:09;78709.56;;;-145.25;73.86
54146;BME280;65909;49.422;7.738;2023-02-28T03:10:40;78733.63;;;-145.25;73.96
54146;BME280;65909;49.422;7.738;2023-02-28T03:21:36;78727.63;;;-145.25;73.41
54146;BME280;65909;49.422;7.738;2023-02-28T03:24:08;78729.63;;;-145.25;73.32
54146;BME280;65909;49.422;7.738;2023-02-28T03:26:39;78743.66;;;-145.25;73.66
54146;BME280;65909;49.422;7.738;2023-02-28T03:31:44;78719.59;;;-145.25;73.30
54146;BME280;65909;49.422;7.738;2023-02-28T03:36:52;78741.66;;;-145.25;73.60
54146;BME280;65909;49.422;7.738;2023-02-28T03:39:35;78745.66;;;-145.25;73.86
54146;BME280;65909;49.422;7.738;2023-02-28T03:42:10;78749.69;;;-145.25;74.10
54146;BME280;65909;49.422;7.738;2023-02-28T03:44:44;78743.66;;;-145.25;73.72
54146;BME280;65909;49.422;7.738;2023-02-28T03:47:20;78759.72;;;-145.25;74.39
54146;BME280;65909;49.422;7.738;2023-02-28T03:52:27;78775.75;;;-145.25;74.78
54146;BME280;65909;49.422;7.738;2023-02-28T03:54:56;78779.78;;;-145.25;75.30
54146;BME280;65909;49.422;7.738;2023-02-28T03:57:36;78769.75;;;-145.25;75.28
54146;BME280;65909;49.422;7.738;2023-02-28T04:00:09;78763.72;;;-145.25;75.16
54146;BME280;65909;49.422;7.738;2023-02-28T04:02:39;78773.75;;;-145.25;75.01
54146;BME280;65909;49.422;7.738;2023-02-28T04:05:05;78771.75;;;-145.25;75.20
54146;BME280;65909;49.422;7.738;2023-02-28T04:07:30;78783.78;;;-145.25;75.76
54146;BME280;65909;49.422;7.738;2023-02-28T04:09:56;78773.75;;;-145.25;75.79
54146;BME280;65909;49.422;7.738;2023-02-28T04:12:22;78785.78;;;-145.25;75.56
54146;BME280;65909;49.422;7.738;2023-02-28T04:14:48;78787.78;;;-145.25;76.10
54146;BME280;65909;49.422;7.738;2023-02-28T04:17:14;78771.75;;;-145.25;75.57
54146;BME280;65909;49.422;7.738;2023-02-28T04:19:40;78781.78;;;-145.25;75.44
54146;BME280;65909;49.422;7.738;2023-02-28T04:22:05;78773.75;;;-145.25;75.49
54146;BME280;65909;49.422;7.738;2023-02-28T04:24:30;78775.75;;;-145.25;75.47
54146;BME280;65909;49.422;7.738;2023-02-28T04:26:57;78781.78;;;-145.25;75.57
54146;BME280;65909;49.422;7.738;2023-02-28T04:29:31;78791.81;;;-145.25;76.29
54146;BME280;65909;49.422;7.738;2023-02-28T04:32:00;78775.75;;;-145.25;75.93
54146;BME280;65909;49.422;7.738;2023-02-28T04:34:27;78759.72;;;-145.25;75.45
54146;BME280;65909;49.422;7.738;2023-02-28T04:36:54;78771.75;;;-145.25;75.70
54146;BME280;65909;49.422;7.738;2023-02-28T04:39:21;78767.75;;;-145.25;76.55
54146;BME280;65909;49.422;7.738;2023-02-28T04:41:47;78749.69;;;-145.25;75.68
54146;BME280;65909;49.422;7.738;2023-02-28T04:44:13;78745.66;;;-145.25;75.98
54146;BME280;65909;49.422;7.738;2023-02-28T04:46:38;78731.63;;;-145.25;75.81
54146;BME280;65909;49.422;7.738;2023-02-28T04:49:04;78725.59;;;-145.25;75.58
54146;BME280;65909;49.422;7.738;2023-02-28T04:51:29;78737.66;;;-145.25;75.58
54146;BME280;65909;49.422;7.738;2023-02-28T04:53:55;78727.63;;;-145.25;75.61
54146;BME280;65909;49.422;7.738;2023-02-28T04:56:21;78735.63;;;-145.25;75.95
54146;BME280;65909;49.422;7.738;2023-02-28T04:58:46;78725.59;;;-145.25;76.01
54146;BME280;65909;49.422;7.738;2023-02-28T05:01:25;78703.53;;;-145.25;75.30
54146;BME280;65909;49.422;7.738;2023-02-28T05:03:53;78715.59;;;-145.25;75.09
54146;BME280;65909;49.422;7.738;2023-02-28T05:06:19;78723.59;;;-145.25;75.30
54146;BME280;65909;49.422;7.738;2023-02-28T05:08:46;78711.56;;;-145.25;75.37
54146;BME280;65909;49.422;7.738;2023-02-28T05:11:32;78713.56;;;-145.25;75.53
54146;BME280;65909;49.422;7.738;2023-02-28T05:14:02;78723.59;;;-145.25;75.68
54146;BME280;65909;49.422;7.738;2023-02-28T05:16:28;78733.63;;;-145.25;75.88
54146;BME280;65909;49.422;7.738;2023-02-28T05:18:53;78719.59;;;-145.25;76.09
54146;BME280;65909;49.422;7.738;2023-02-28T05:21:36;78729.63;;;-145.25;75.49
54146;BME280;65909;49.422;7.738;2023-02-28T05:24:05;78719.59;;;-145.25;75.54
54146;BME280;65909;49.422;7.738;2023-02-28T05:26:31;78729.63;;;-145.25;75.00
54146;BME280;65909;49.422;7.738;2023-02-28T05:28:58;78701.53;;;-145.25;74.76
54146;BME280;65909;49.422;7.738;2023-02-28T05:31:24;78675.47;;;-145.25;73.29
54146;BME280;65909;49.422;7.738;2023-02-28T05:33:49;78697.53;;;-145.25;73.43
54146;BME280;65909;49.422;7.738;2023-02-28T05:36:15;78697.53;;;-145.25;73.56
54146;BME280;65909;49.422;7.738;2023-02-28T05:38:40;78677.47;;;-145.25;72.96
54146;BME280;65909;49.422;7.738;2023-02-28T05:41:09;78691.50;;;-145.25;73.72
54146;BME280;65909;49.422;7.738;2023-02-28T05:43:36;78711.56;;;-145.25;74.63
54146;BME280;65909;49.422;7.738;2023-02-28T05:46:06;78711.56;;;-145.25;74.41
54146;BME280;65909;49.422;7.738;2023-02-28T05:48:33;78701.53;;;-145.25;75.00
54146;BME280;65909;49.422;7.738;2023-02-28T05:50:59;78681.47;;;-145.25;73.56
54146;BME280;65909;49.422;7.738;2023-02-28T05:53:24;78701.53;;;-145.25;74.30
54146;BME280;65909;49.422;7.738;2023-02-28T05:55:49;78729.63;;;-145.25;74.58
54146;BME280;65909;49.422;7.738;2023-02-28T05:58:15;78719.59;;;-145.25;75.51
54146;BME280;65909;49.422;7.738;2023-02-28T06:00:40;78729.63;;;-145.25;74.71
54146;BME280;65909;49.422;7.738;2023-02-28T06:03:05;78739.66;;;-145.25;75.46
54146;BME280;65909;49.422;7.738;2023-02-28T06:05:31;78725.59;;;-145.25;75.36
54146;BME280;65909;49.422;7.738;2023-02-28T06:07:56;78747.69;;;-145.25;75.72
54146;BME280;65909;49.422;7.738;2023-02-28T06:10:22;78743.66;;;-145.25;75.24
54146;BME280;65909;49.422;7.738;2023-02-28T06:12:47;78767.75;;;-145.25;75.91
54146;BME280;65909;49.422;7.738;2023-02-28T06:15:14;78745.66;;;-145.25;76.39
54146;BME280;65909;49.422;7.738;2023-02-28T06:17:44;78743.66;;;-145.25;75.63
54146;BME280;65909;49.422;7.738;2023-02-28T06:20:10;78739.66;;;-145.25;75.61
54146;BME280;65909;49.422;7.738;2023-02-28T06:22:38;78747.69;;;-145.25;75.09
54146;BME280;65909;49.422;7.738;2023-02-28T06:25:04;78731.63;;;-145.25;74.83
54146;BME280;65909;49.422;7.738;2023-02-28T06:27:31;78737.66;;;-145.25;74.49
54146;BME280;65909;49.422;7.738;2023-02-28T06:29:57;78715.59;;;-145.25;73.59
54146;BME280;65909;49.422;7.738;2023-02-28T06:32:22;78725.59;;;-145.25;73.76
54146;BME280;65909;49.422;7.738;2023-02-28T06:34:48;78719.59;;;-145.25;72.67
54146;BME280;65909;49.422;7.738;2023-02-28T06:37:14;78687.50;;;-145.25;72.25
54146;BME280;65909;49.422;7.738;2023-02-28T06:39:39;78697.53;;;-145.25;71.76
54146;BME280;65909;49.422;7.738;2023-02-28T06:42:05;78681.47;;;-145.25;71.49
54146;BME280;65909;49.422;7.738;2023-02-28T06:44:30;78647.38;;;-145.25;70.97
54146;BME280;65909;49.422;7.738;2023-02-28T06:47:01;78621.31;;;-145.25;69.64
54146;BME280;65909;49.422;7.738;2023-02-28T06:49:28;78611.28;;;-145.25;69.00
54146;BME280;65909;49.422;7.738;2023-02-28T06:51:54;78579.19;;;-145.25;68.65
54146;BME280;65909;49.422;7.738;2023-02-28T06:54:19;78539.06;;;-145.25;67.05
54146;BME280;65909;49.422;7.738;2023-02-28T06:56:45;78448.78;;;-145.25;64.48
54146;BME280;65909;49.422;7.738;2023-02-28T06:59:10;78484.91;;;-145.25;64.00
54146;BME280;65909;49.422;7.738;2023-02-28T07:01:35;78515.00;;;-145.25;64.64
54146;BME280;65909;49.422;7.738;2023-02-28T07:04:01;78521.00;;;-145.25;64.77
54146;BME280;65909;49.422;7.738;2023-02-28T07:06:27;78551.09;;;-145.25;64.94
54146;BME280;65909;49.422;7.738;2023-02-28T07:08:53;78539.06;;;-145.25;64.80
54146;BME280;65909;49.422;7.738;2023-02-28T07:11:20;78529.03;;;-145.25;64.46
54146;BME280;65909;49.422;7.738;2023-02-28T07:13:48;78478.88;;;-145.25;63.74
54146;BME280;65909;49.422;7.738;2023-02-28T07:16:13;78374.56;;;-145.25;61.94
54146;BME280;65909;49.422;7.738;2023-02-28T07:18:39;77865.13;;;-145.25;54.13
54146;BME280;65909;49.422;7.738;2023-02-28T07:21:06;77454.00;;;-145.25;45.38
54146;BME280;65909;49.422;7.738;2023-02-28T07:23:32;77167.25;;;-145.25;40.69
54146;BME280;65909;49.422;7.738;2023-02-28T07:25:57;77133.16;;;-145.25;39.35
54146;BME280;65909;49.422;7.738;2023-02-28T07:28:23;76928.66;;;-145.25;37.43
54146;BME280;65909;49.422;7.738;2023-02-28T07:30:49;76836.41;;;-145.25;34.86
54146;BME280;65909;49.422;7.738;2023-02-28T07:33:15;76802.31;;;-145.25;34.13
54146;BME280;65909;49.422;7.738;2023-02-28T07:35:40;76944.69;;;-145.25;34.85
54146;BME280;65909;49.422;7.738;2023-02-28T07:38:06;76826.38;;;-145.25;34.82
54146;BME280;65909;49.422;7.738;2023-02-28T07:40:33;76740.16;;;-145.25;33.04
54146;BME280;65909;49.422;7.738;2023-02-28T07:43:00;76822.38;;;-145.25;33.82
54146;BME280;65909;49.422;7.738;2023-02-28T07:45:27;76712.09;;;-145.25;33.21
54146;BME280;65909;49.422;7.738;2023-02-28T07:47:54;76577.78;;;-145.25;31.56
54146;BME280;65909;49.422;7.738;2023-02-28T07:50:19;76692.06;;;-145.25;31.84
54146;BME280;65909;49.422;7.738;2023-02-28T07:52:45;76497.56;;;-145.25;31.30
54146;BME280;65909;49.422;7.738;2023-02-28T07:55:10;76445.44;;;-145.25;30.98
54146;BME280;65909;49.422;7.738;2023-02-28T07:57:36;76363.25;;;-145.25;30.09
54146;BME280;65909;49.422;7.738;2023-02-28T08:00:04;76395.31;;;-145.25;29.65
54146;BME280;65909;49.422;7.738;2023-02-28T08:02:30;76393.31;;;-145.25;30.02
54146;BME280;65909;49.422;7.738;2023-02-28T08:04:55;76277.03;;;-145.25;29.43
54146;BME280;65909;49.422;7.738;2023-02-28T08:07:21;76447.44;;;-145.25;29.59
54146;BME280;65909;49.422;7.738;2023-02-28T08:09:47;76465.50;;;-145.25;30.37
54146;BME280;65909;49.422;7.738;2023-02-28T08:12:12;76361.25;;;-145.25;28.72
54146;BME280;65909;49.422;7.738;2023-02-28T08:14:38;76511.59;;;-145.25;29.52
54146;BME280;65909;49.422;7.738;2023-02-28T08:17:04;76455.47;;;-145.25;28.71
54146;BME280;65909;49.422;7.738;2023-02-28T08:19:30;76734.16;;;-145.25;29.71
54146;BME280;65909;49.422;7.738;2023-02-28T08:21:56;76698.06;;;-145.25;29.37
54146;BME280;65909;49.422;7.738;2023-02-28T08:24:21;76672.00;;;-145.25;29.18
54146;BME280;65909;49.422;7.738;2023-02-28T08:26:47;76706.09;;;-145.25;28.74
54146;BME280;65909;49.422;7.738;2023-02-28T08:29:13;76800.31;;;-145.25;29.16
54146;BME280;65909;49.422;7.738;2023-02-28T08:31:38;76912.59;;;-145.25;30.04
54146;BME280;65909;49.422;7.738;2023-02-28T08:34:08;76814.34;;;-145.25;29.59
54146;BME280;65909;49.422;7.738;2023-02-28T08:36:34;76890.53;;;-145.25;29.61
54146;BME280;65909;49.422;7.738;2023-02-28T08:38:59;76902.56;;;-145.25;29.40
54146;BME280;65909;49.422;7.738;2023-02-28T08:41:25;76806.34;;;-145.25;29.43
54146;BME280;65909;49.422;7.738;2023-02-28T08:43:51;76888.53;;;-145.25;29.04
54146;BME280;65909;49.422;7.738;2023-02-28T08:46:16;76655.97;;;-145.25;28.61
54146;BME280;65909;49.422;7.738;2023-02-28T08:48:42;76645.94;;;-145.25;27.89
54146;BME280;65909;49.422;7.738;2023-02-28T08:51:13;76688.03;;;-145.25;28.22
54146;BME280;65909;49.422;7.738;2023-02-28T08:53:41;76653.97;;;-145.25;28.38
54146;BME280;65909;49.422;7.738;2023-02-28T08:56:09;76625.88;;;-145.25;28.23
54146;BME280;65909;49.422;7.738;2023-02-28T08:58:35;76383.28;;;-145.25;26.66
54146;BME280;65909;49.422;7.738;2023-02-28T09:01:00;76471.50;;;-145.25;26.81
54146;BME280;65909;49.422;7.738;2023-02-28T09:03:26;76469.50;;;-145.25;27.31
54146;BME280;65909;49.422;7.738;2023-02-28T09:05:57;76639.91;;;-145.25;27.36
54146;BME280;65909;49.422;7.738;2023-02-28T09:08:24;76535.66;;;-145.25;26.94
54146;BME280;65909;49.422;7.738;2023-02-28T09:10:50;76597.81;;;-145.25;27.21
54146;BME280;65909;49.422;7.738;2023-02-28T09:13:16;76569.75;;;-145.25;26.74
54146;BME280;65909;49.422;7.738;2023-02-28T09:15:41;76501.59;;;-145.25;27.25
54146;BME280;65909;49.422;7.738;2023-02-28T09:18:06;76481.53;;;-145.25;26.72
54146;BME280;65909;49.422;7.738;2023-02-28T09:20:32;76523.63;;;-145.25;26.92
54146;BME280;65909;49.422;7.738;2023-02-28T09:22:57;76451.47;;;-145.25;26.86
54146;BME280;65909;49.422;7.738;2023-02-28T09:25:22;76393.31;;;-145.25;26.14
54146;BME280;65909;49.422;7.738;2023-02-28T09:27:48;76495.56;;;-145.25;26.57
54146;BME280;65909;49.422;7.738;2023-02-28T09:30:14;76379.28;;;-145.25;25.76
54146;BME280;65909;49.422;7.738;2023-02-28T09:32:39;76379.28;;;-145.25;25.57
54146;BME280;65909;49.422;7.738;2023-02-28T09:35:05;76335.19;;;-145.25;25.82
54146;BME280;65909;49.422;7.738;2023-02-28T09:37:31;76285.06;;;-145.25;25.12
54146;BME280;65909;49.422;7.738;2023-02-28T09:39:57;76166.78;;;-145.25;24.39
54146;BME280;65909;49.422;7.738;2023-02-28T09:42:28;76244.97;;;-145.25;24.76
54146;BME280;65909;49.422;7.738;2023-02-28T09:44:56;76232.94;;;-145.25;24.65
54146;BME280;65909;49.422;7.738;2023-02-28T09:47:36;76186.81;;;-145.25;24.56
54146;BME280;65909;49.422;7.738;2023-02-28T09:50:16;76575.75;;;-145.25;26.58
54146;BME280;65909;49.422;7.738;2023-02-28T09:52:45;76651.94;;;-145.25;26.67
54146;BME280;65909;49.422;7.738;2023-02-28T09:55:40;76563.72;;;-145.25;26.74
54146;BME280;65909;49.422;7.738;2023-02-28T09:58:18;76391.31;;;-145.25;26.04
54146;BME280;65909;49.422;7.738;2023-02-28T10:00:59;76672.00;;;-145.25;26.35
54146;BME280;65909;49.422;7.738;2023-02-28T10:03:35;76900.56;;;-145.25;27.93
54146;BME280;65909;49.422;7.738;2023-02-28T10:06:19;76986.78;;;-145.25;29.13
54146;BME280;65909;49.422;7.738;2023-02-28T10:08:52;76774.25;;;-145.25;28.23
54146;BME280;65909;49.422;7.738;2023-02-28T10:11:20;76373.28;;;-145.25;25.98
54146;BME280;65909;49.422;7.738;2023-02-28T10:14:01;76186.81;;;-145.25;25.02
54146;BME280;65909;49.422;7.738;2023-02-28T10:16:41;76176.81;;;-145.25;24.58
54146;BME280;65909;49.422;7.738;2023-02-28T10:19:35;76824.38;;;-145.25;27.03
54146;BME280;65909;49.422;7.738;2023-02-28T10:24:52;76585.78;;;-145.25;26.67
54146;BME280;65909;49.422;7.738;2023-02-28T10:29:53;76208.88;;;-145.25;24.62
54146;BME280;65909;49.422;7.738;2023-02-28T10:32:23;76435.41;;;-145.25;25.38
54146;BME280;65909;49.422;7.738;2023-02-28T10:35:16;76718.13;;;-145.25;26.77
54146;BME280;65909;49.422;7.738;2023-02-28T10:37:45;76720.13;;;-145.25;27.43
54146;BME280;65909;49.422;7.738;2023-02-28T10:40:29;76569.75;;;-145.25;26.34
54146;BME280;65909;49.422;7.738;2023-02-28T10:42:58;76405.34;;;-145.25;25.34
54146;BME280;65909;49.422;7.738;2023-02-28T10:45:25;76283.06;;;-145.25;24.86
54146;BME280;65909;49.422;7.738;2023-02-28T10:50:50;76623.88;;;-145.25;26.59
54146;BME280;65909;49.422;7.738;2023-02-28T10:56:12;76928.66;;;-145.25;28.90
54146;BME280;65909;49.422;7.738;2023-02-28T11:03:42;77065.00;;;-145.25;29.07
54146;BME280;65909;49.422;7.738;2023-02-28T11:06:14;77137.19;;;-145.25;29.00
54146;BME280;65909;49.422;7.738;2023-02-28T11:08:45;77205.34;;;-145.25;29.67
54146;BME280;65909;49.422;7.738;2023-02-28T11:11:10;76722.13;;;-145.25;26.89
54146;BME280;65909;49.422;7.738;2023-02-28T11:13:36;76633.91;;;-145.25;26.65
54146;BME280;65909;49.422;7.738;2023-02-28T11:16:11;76325.16;;;-145.25;25.37
54146;BME280;65909;49.422;7.738;2023-02-28T11:18:40;76293.09;;;-145.25;25.56
54146;BME280;65909;49.422;7.738;2023-02-28T11:21:08;76252.97;;;-145.25;24.72
54146;BME280;65909;49.422;7.738;2023-02-28T11:23:36;76533.66;;;-145.25;26.48
54146;BME280;65909;49.422;7.738;2023-02-28T11:26:05;76647.94;;;-145.25;26.42
54146;BME280;65909;49.422;7.738;2023-02-28T11:28:37;76756.22;;;-145.25;27.42
54146;BME280;65909;49.422;7.738;2023-02-28T11:33:44;76908.59;;;-145.25;27.97
54146;BME280;65909;49.422;7.738;2023-02-28T11:36:22;76924.63;;;-145.25;28.72
54146;BME280;65909;49.422;7.738;2023-02-28T11:38:53;76814.34;;;-145.25;27.45
54146;BME280;65909;49.422;7.738;2023-02-28T11:47:00;76591.81;;;-145.25;26.51
54146;BME280;65909;49.422;7.738;2023-02-28T11:52:47;76956.72;;;-145.25;29.00
54146;BME280;65909;49.422;7.738;2023-02-28T11:55:24;76872.50;;;-145.25;28.08
54146;BME280;65909;49.422;7.738;2023-02-28T11:58:17;76916.63;;;-145.25;28.60
54146;BME280;65909;49.422;7.738;2023-02-28T12:01:18;76726.13;;;-145.25;27.06
54146;BME280;65909;49.422;7.738;2023-02-28T12:09:32;76734.16;;;-145.25;27.69
54146;BME280;65909;49.422;7.738;2023-02-28T12:12:29;76766.25;;;-145.25;27.99
54146;BME280;65909;49.422;7.738;2023-02-28T12:21:11;76950.69;;;-145.25;28.52
54146;BME280;65909;49.422;7.738;2023-02-28T12:26:45;76587.78;;;-145.25;27.22
54146;BME280;65909;49.422;7.738;2023-02-28T12:29:29;76575.75;;;-145.25;26.62
54146;BME280;65909;49.422;7.738;2023-02-28T12:32:03;76601.81;;;-145.25;26.74
54146;BME280;65909;49.422;7.738;2023-02-28T12:34:38;76535.66;;;-145.25;26.39
54146;BME280;65909;49.422;7.738;2023-02-28T12:37:10;76469.50;;;-145.25;25.87
54146;BME280;65909;49.422;7.738;2023-02-28T12:39:45;76451.47;;;-145.25;25.44
54146;BME280;65909;49.422;7.738;2023-02-28T12:42:22;76659.97;;;-145.25;26.64
54146;BME280;65909;49.422;7.738;2023-02-28T12:45:30;76718.13;;;-145.25;27.31
54146;BME280;65909;49.422;7.738;2023-02-28T12:48:00;76796.31;;;-145.25;27.50
54146;BME280;65909;49.422;7.738;2023-02-28T12:50:27;76732.16;;;-145.25;27.53
54146;BME280;65909;49.422;7.738;2023-02-28T12:53:00;76692.06;;;-145.25;27.54
54146;BME280;65909;49.422;7.738;2023-02-28T12:55:40;76672.00;;;-145.25;27.44
54146;BME280;65909;49.422;7.738;2023-02-28T12:58:31;76778.25;;;-145.25;27.87
54146;BME280;65909;49.422;7.738;2023-02-28T13:04:39;76704.06;;;-145.25;27.44
54146;BME280;65909;49.422;7.738;2023-02-28T13:09:59;76730.16;;;-145.25;27.63
54146;BME280;65909;49.422;7.738;2023-02-28T13:12:25;76659.97;;;-145.25;27.61
54146;BME280;65909;49.422;7.738;2023-02-28T13:15:22;76653.97;;;-145.25;27.30
54146;BME280;65909;49.422;7.738;2023-02-28T13:17:51;76665.97;;;-145.25;27.75
54146;BME280;65909;49.422;7.738;2023-02-28T13:20:36;76744.19;;;-145.25;27.78
54146;BME280;65909;49.422;7.738;2023-02-28T13:23:02;76822.38;;;-145.25;28.59
54146;BME280;65909;49.422;7.738;2023-02-28T13:28:00;76846.44;;;-145.25;29.29
54146;BME280;65909;49.422;7.738;2023-02-28T13:38:48;76950.69;;;-145.25;30.57
54146;BME280;65909;49.422;7.738;2023-02-28T13:46:36;76984.78;;;-145.25;29.80
54146;BME280;65909;49.422;7.738;2023-02-28T13:54:27;77046.94;;;-145.25;30.59
54146;BME280;65909;49.422;7.738;2023-02-28T13:57:02;77014.88;;;-145.25;31.07
54146;BME280;65909;49.422;7.738;2023-02-28T14:02:15;77099.09;;;-145.25;31.17
54146;BME280;65909;49.422;7.738;2023-02-28T14:07:24;77121.13;;;-145.25;31.47
54146;BME280;65909;49.422;7.738;2023-02-28T14:09:57;77149.22;;;-145.25;31.79
54146;BME280;65909;49.422;7.738;2023-02-28T14:12:52;77221.41;;;-145.25;32.38
54146;BME280;65909;49.422;7.738;2023-02-28T14:18:21;77115.13;;;-145.25;32.25
54146;BME280;65909;49.422;7.738;2023-02-28T14:20:48;77117.13;;;-145.25;32.38
54146;BME280;65909;49.422;7.738;2023-02-28T14:23:32;77163.25;;;-145.25;32.53
54146;BME280;65909;49.422;7.738;2023-02-28T14:26:16;77247.47;;;-145.25;33.15
54146;BME280;65909;49.422;7.738;2023-02-28T14:31:22;77259.50;;;-145.25;33.25
54146;BME280;65909;49.422;7.738;2023-02-28T14:36:37;77269.53;;;-145.25;33.56
54146;BME280;65909;49.422;7.738;2023-02-28T14:39:07;77249.47;;;-145.25;33.93
54146;BME280;65909;49.422;7.738;2023-02-28T14:41:39;77221.41;;;-145.25;33.52
54146;BME280;65909;49.422;7.738;2023-02-28T14:44:18;77239.44;;;-145.25;33.67
54146;BME280;65909;49.422;7.738;2023-02-28T14:46:45;77271.53;;;-145.25;33.42